Roberts Field
KRDM : now visible

Airfield :











YOU CAN JOIN US ON...

 
LOGIN :

Register | Disclaimer

   EN    FR    IT 

 









Legend :    VFR   Marginal VFR   IFR   Intensive IFR   Very Intensive IFR
Visi :
Ceiling :
>= 8 km
>= 3000ft
5 to 8 km
1000 to 3000 ft
1500m to 5 km
500 to 1000 ft
800 to 1500m
200 to 500 ft
< 800m
< 200 ft
Symbols :   Thunderstorms  Fog  Heavy snow  Heavy precipitations  Wind > 20 kt






- Airport Elevation : 3080 ft
- IATA code : RDM


KRDM - Roberts Field

CURRENT METAR :
  • 310656Z AUTO 34005KT 10SM OVC047 10/04 A2992 RMK AO2 SLP110 T01000044

EXPIRED METARs :
  • 310556Z AUTO 04004KT 10SM BKN050 OVC065 11/04 A2991 RMK AO2 SLP109 T01060044 10167 20094 51022
  • 310456Z AUTO 35006KT 10SM BKN048 OVC060 11/04 A2990 RMK AO2 SLP106 T01060044

TAF KRDM
Valid from the 31 at 06:00 until the 01 at 06:00 UTC


310520Z 3106/0106 32010KT P6SM VCSH BKN040
FM310900 28009KT P6SM VCSH BKN035
FM311600 26005KT P6SM SCT250
FM312100 34010KT P6SM FEW250
FM010400 VRB05KT P6SM SKC
KZSE FIR / North America



MET'MAP, your aeronautical weather chart ! - Copyright ORBIFLY December 2007 - Disclaimer

ORBIFLY MET'MAP TEAM :

Programming & Development : Alexandra Zaïnal
Concept & original design : Baudouin d'Aumeries
Assistance for programming : Marc-Olivier Méhu
Technical & hardware support : Manuel Goepfert

Contact : metmap@orbifly.com




SOURCES & CREDITS :

   NOAA       Earth
Advisory